createdAt,value
2017-01-01T00:00:31.640Z,0
2017-01-01T00:01:12.133Z,0
2017-01-01T00:01:52.622Z,0
2017-01-01T00:02:33.095Z,0
2017-01-01T00:03:13.613Z,0
2017-01-01T00:03:54.103Z,0
2017-01-01T00:04:34.618Z,0
2017-01-01T00:05:15.111Z,0
2017-01-01T00:05:55.601Z,0
2017-01-01T00:06:36.111Z,0
2017-01-01T00:07:16.652Z,0
2017-01-01T00:07:57.143Z,0
2017-01-01T00:08:37.655Z,0
2017-01-01T00:09:18.146Z,0
2017-01-01T00:09:58.652Z,0
2017-01-01T00:10:39.141Z,0
2017-01-01T00:11:19.653Z,0
2017-01-01T00:12:00.137Z,0
2017-01-01T00:12:40.623Z,0
2017-01-01T00:13:21.126Z,0
2017-01-01T00:14:01.614Z,0
2017-01-01T00:14:42.102Z,0
2017-01-01T00:15:22.601Z,0
2017-01-01T00:16:03.086Z,0
2017-01-01T00:16:43.580Z,0
2017-01-01T00:17:24.061Z,0
2017-01-01T00:18:04.578Z,0
2017-01-01T00:18:45.072Z,0
2017-01-01T00:19:25.571Z,0
2017-01-01T00:20:06.067Z,0
2017-01-01T00:20:46.565Z,0
2017-01-01T00:21:27.050Z,0
2017-01-01T00:22:07.547Z,0
2017-01-01T00:22:48.048Z,0
2017-01-01T00:23:28.530Z,0
2017-01-01T00:24:09.046Z,0
2017-01-01T00:24:49.537Z,0
2017-01-01T00:25:30.020Z,0
2017-01-01T00:26:10.507Z,0
2017-01-01T00:26:51.006Z,0
2017-01-01T00:27:31.496Z,0
2017-01-01T00:28:11.990Z,0
2017-01-01T00:28:52.487Z,0
2017-01-01T00:29:32.990Z,0
2017-01-01T00:30:13.484Z,0
2017-01-01T00:30:53.978Z,0
2017-01-01T00:31:34.463Z,0
2017-01-01T00:32:14.962Z,0
2017-01-01T00:32:55.447Z,0
2017-01-01T00:33:35.935Z,0
2017-01-01T00:34:16.425Z,0
2017-01-01T00:34:56.904Z,0
2017-01-01T00:35:37.392Z,0
2017-01-01T00:36:17.897Z,0
2017-01-01T00:36:58.380Z,0
2017-01-01T00:37:38.874Z,0
2017-01-01T00:38:19.376Z,0
2017-01-01T00:38:59.867Z,0
2017-01-01T00:39:40.372Z,0
2017-01-01T00:40:20.867Z,0
2017-01-01T00:41:01.377Z,0
2017-01-01T00:41:41.860Z,0
2017-01-01T00:42:22.351Z,0
2017-01-01T00:43:02.838Z,0
2017-01-01T00:43:43.323Z,0
2017-01-01T00:44:23.803Z,0
2017-01-01T00:45:04.316Z,0
2017-01-01T00:45:44.821Z,0
2017-01-01T00:46:25.307Z,0
2017-01-01T00:47:05.794Z,0
2017-01-01T00:47:46.293Z,0
2017-01-01T00:48:26.781Z,0
2017-01-01T00:49:07.268Z,0
2017-01-01T00:49:47.751Z,0
2017-01-01T00:50:28.240Z,0
2017-01-01T00:51:08.727Z,0
2017-01-01T00:51:49.227Z,0
2017-01-01T00:52:29.716Z,0
2017-01-01T00:53:10.213Z,0
2017-01-01T00:53:50.732Z,0
2017-01-01T00:54:31.225Z,0
2017-01-01T00:55:11.712Z,0
2017-01-01T00:55:52.206Z,0
2017-01-01T00:56:32.706Z,0
2017-01-01T00:57:13.194Z,0
2017-01-01T00:57:53.684Z,0
2017-01-01T00:58:34.254Z,0
2017-01-01T00:59:14.741Z,0
2017-01-01T00:59:55.235Z,0
2017-01-01T01:00:35.714Z,0
2017-01-01T01:01:16.226Z,0
2017-01-01T01:01:56.712Z,0
2017-01-01T01:02:37.220Z,0
2017-01-01T01:03:17.703Z,0
2017-01-01T01:03:58.194Z,0
2017-01-01T01:04:38.683Z,0
2017-01-01T01:05:19.187Z,0
2017-01-01T01:05:59.726Z,0
2017-01-01T01:06:40.215Z,0
2017-01-01T01:07:20.701Z,0
2017-01-01T01:08:01.181Z,0
2017-01-01T01:08:41.680Z,0
2017-01-01T01:09:22.185Z,0
2017-01-01T01:10:02.672Z,0
2017-01-01T01:10:43.151Z,0
2017-01-01T01:11:23.667Z,0
2017-01-01T01:12:04.151Z,0
2017-01-01T01:12:44.648Z,0
2017-01-01T01:13:25.137Z,0
2017-01-01T01:14:05.629Z,0
2017-01-01T01:14:46.125Z,0
2017-01-01T01:15:26.617Z,0
2017-01-01T01:16:07.103Z,0
2017-01-01T01:16:47.589Z,0
2017-01-01T01:17:28.074Z,0
2017-01-01T01:18:08.561Z,0
2017-01-01T01:18:49.044Z,0
2017-01-01T01:19:29.535Z,0
2017-01-01T01:20:10.030Z,0
2017-01-01T01:20:50.522Z,0
2017-01-01T01:21:31.024Z,0
2017-01-01T01:22:11.518Z,0
2017-01-01T01:22:52.007Z,0
2017-01-01T01:23:32.500Z,0
2017-01-01T01:24:12.992Z,0
2017-01-01T01:24:53.479Z,0
2017-01-01T01:25:33.960Z,0
2017-01-01T01:26:14.456Z,0
2017-01-01T01:26:54.977Z,0
2017-01-01T01:27:35.475Z,0
2017-01-01T01:28:15.965Z,0
2017-01-01T01:28:56.722Z,0
2017-01-01T01:29:37.126Z,0
2017-01-01T01:30:17.614Z,0
2017-01-01T01:30:58.098Z,0
2017-01-01T01:31:38.581Z,0
2017-01-01T01:32:19.068Z,0
2017-01-01T01:32:59.568Z,0
2017-01-01T01:33:40.064Z,0
2017-01-01T01:34:20.567Z,0
2017-01-01T01:35:01.062Z,0
2017-01-01T01:35:41.570Z,0
2017-01-01T01:36:22.060Z,0
2017-01-01T01:37:02.549Z,0
2017-01-01T01:37:43.054Z,0
2017-01-01T01:38:23.562Z,0
2017-01-01T01:39:04.052Z,0
2017-01-01T01:39:44.544Z,0
2017-01-01T01:40:25.024Z,0
2017-01-01T01:41:05.517Z,0
2017-01-01T01:41:46.010Z,0
2017-01-01T01:42:26.497Z,0
2017-01-01T01:43:06.989Z,0
2017-01-01T01:43:47.479Z,0
2017-01-01T01:44:27.982Z,0
2017-01-01T01:45:08.464Z,0
2017-01-01T01:45:48.943Z,0
2017-01-01T01:46:29.452Z,0
2017-01-01T01:47:10.769Z,0
2017-01-01T01:47:50.403Z,0
2017-01-01T01:48:30.901Z,0
2017-01-01T01:49:11.432Z,0
2017-01-01T01:49:51.942Z,0
2017-01-01T01:50:32.435Z,0
2017-01-01T01:51:12.930Z,0
2017-01-01T01:51:53.454Z,0
2017-01-01T01:52:33.940Z,0
2017-01-01T01:53:14.425Z,0
2017-01-01T01:53:54.919Z,0
2017-01-01T01:54:35.415Z,0
2017-01-01T01:55:15.903Z,0
2017-01-01T01:55:56.383Z,0
2017-01-01T01:56:36.876Z,0
2017-01-01T01:57:17.375Z,0
2017-01-01T01:57:57.864Z,0
2017-01-01T01:58:38.352Z,0
2017-01-01T01:59:18.844Z,0
2017-01-01T01:59:59.543Z,0
2017-01-01T02:00:40.030Z,0
2017-01-01T02:01:20.530Z,0
2017-01-01T02:02:01.026Z,0
2017-01-01T02:02:41.506Z,0
2017-01-01T02:03:21.996Z,0
2017-01-01T02:04:02.492Z,0
2017-01-01T02:04:42.994Z,0
2017-01-01T02:05:23.484Z,0
2017-01-01T02:06:03.968Z,0
2017-01-01T02:06:44.448Z,0
2017-01-01T02:07:24.931Z,0
2017-01-01T02:08:05.434Z,0
2017-01-01T02:08:45.922Z,0
2017-01-01T02:09:26.433Z,0
2017-01-01T02:10:06.920Z,0
2017-01-01T02:10:47.413Z,0
2017-01-01T02:11:27.901Z,0
2017-01-01T02:12:08.395Z,0
2017-01-01T02:12:48.882Z,0
2017-01-01T02:13:29.370Z,0
2017-01-01T02:14:09.858Z,0
2017-01-01T02:14:50.344Z,0
2017-01-01T02:15:30.836Z,0
2017-01-01T02:16:11.328Z,0
2017-01-01T02:16:51.816Z,0
2017-01-01T02:17:32.300Z,0
2017-01-01T02:18:12.810Z,0
2017-01-01T02:18:53.293Z,0
2017-01-01T02:19:33.783Z,0
2017-01-01T02:20:14.267Z,0
2017-01-01T02:20:54.773Z,0
2017-01-01T02:21:35.261Z,0
2017-01-01T02:22:15.749Z,0
2017-01-01T02:22:56.238Z,0
2017-01-01T02:23:36.736Z,0
2017-01-01T02:24:17.224Z,0
2017-01-01T02:24:57.718Z,0
2017-01-01T02:25:38.213Z,0
2017-01-01T02:26:18.707Z,0
2017-01-01T02:26:59.199Z,0
2017-01-01T02:27:39.705Z,0
2017-01-01T02:28:20.191Z,0
2017-01-01T02:29:00.683Z,0
2017-01-01T02:29:41.177Z,0
2017-01-01T02:30:21.666Z,0
2017-01-01T02:31:02.150Z,0
2017-01-01T02:31:42.659Z,0
2017-01-01T02:32:23.144Z,0
2017-01-01T02:33:03.659Z,0
2017-01-01T02:33:44.148Z,0
2017-01-01T02:34:24.658Z,0
2017-01-01T02:35:05.143Z,0
2017-01-01T02:35:45.633Z,0
2017-01-01T02:36:26.112Z,0
2017-01-01T02:37:06.617Z,0
2017-01-01T02:37:47.107Z,0
2017-01-01T02:38:27.602Z,0
2017-01-01T02:39:08.099Z,0
2017-01-01T02:39:48.601Z,0
2017-01-01T02:40:29.096Z,0
2017-01-01T02:41:09.593Z,0
2017-01-01T02:41:50.096Z,0
2017-01-01T02:42:30.592Z,0
2017-01-01T02:43:11.095Z,0
2017-01-01T02:43:51.590Z,0
2017-01-01T02:44:32.078Z,0
2017-01-01T02:45:12.589Z,0
2017-01-01T02:45:53.096Z,0
2017-01-01T02:46:33.583Z,0
2017-01-01T02:47:14.093Z,0
2017-01-01T02:47:54.581Z,0
2017-01-01T02:48:35.068Z,0
2017-01-01T02:49:15.550Z,0
2017-01-01T02:49:56.044Z,0
2017-01-01T02:50:36.539Z,0
2017-01-01T02:51:17.030Z,0
2017-01-01T02:51:57.538Z,0
2017-01-01T02:52:38.022Z,0
2017-01-01T02:53:18.518Z,0
2017-01-01T02:53:59.023Z,0
2017-01-01T02:54:39.536Z,0
2017-01-01T02:55:20.022Z,0
2017-01-01T02:56:00.512Z,0
2017-01-01T02:56:40.998Z,0
2017-01-01T02:57:21.504Z,0
2017-01-01T02:58:01.990Z,0
2017-01-01T02:58:42.472Z,0
2017-01-01T02:59:22.982Z,0
2017-01-01T03:00:03.467Z,0
2017-01-01T03:00:43.954Z,0
2017-01-01T03:01:24.446Z,0
2017-01-01T03:02:04.943Z,0
2017-01-01T03:02:45.434Z,0
2017-01-01T03:03:25.927Z,0
2017-01-01T03:04:06.420Z,0
2017-01-01T03:04:46.922Z,0
2017-01-01T03:05:27.420Z,0
2017-01-01T03:06:07.910Z,0
2017-01-01T03:06:48.424Z,0
2017-01-01T03:07:28.908Z,0
2017-01-01T03:08:09.421Z,0
2017-01-01T03:08:49.918Z,0
2017-01-01T03:09:30.416Z,0
2017-01-01T03:10:10.907Z,0
2017-01-01T03:10:51.419Z,0
2017-01-01T03:11:31.915Z,0
2017-01-01T03:12:12.415Z,0
2017-01-01T03:14:25.231Z,0
2017-01-01T03:15:05.718Z,0
2017-01-01T03:15:46.205Z,0
2017-01-01T03:16:26.699Z,0
2017-01-01T03:17:07.195Z,0
2017-01-01T03:17:47.683Z,0
2017-01-01T03:18:28.180Z,0
2017-01-01T03:19:08.670Z,0
2017-01-01T03:19:49.166Z,0
2017-01-01T03:20:29.675Z,0
2017-01-01T03:21:10.166Z,0
2017-01-01T03:21:50.645Z,0
2017-01-01T03:22:31.126Z,0
2017-01-01T03:23:11.621Z,0
2017-01-01T03:23:52.114Z,0
2017-01-01T03:24:32.612Z,0
2017-01-01T03:25:13.103Z,0
2017-01-01T03:25:53.604Z,0
2017-01-01T03:26:34.115Z,0
2017-01-01T03:27:14.593Z,0
2017-01-01T03:27:55.091Z,0
2017-01-01T03:28:35.589Z,0
2017-01-01T03:29:16.086Z,0
2017-01-01T03:29:56.575Z,0
2017-01-01T03:30:37.076Z,0
2017-01-01T03:31:17.562Z,0
2017-01-01T03:31:58.050Z,0
2017-01-01T03:32:38.539Z,0
2017-01-01T03:33:19.048Z,0
2017-01-01T03:33:59.535Z,0
2017-01-01T03:34:40.029Z,0
2017-01-01T03:35:20.521Z,0
2017-01-01T03:36:01.005Z,0
2017-01-01T03:36:41.493Z,0
2017-01-01T03:37:21.981Z,0
2017-01-01T03:38:02.477Z,0
2017-01-01T03:38:42.968Z,0
2017-01-01T03:39:23.458Z,0
2017-01-01T03:40:03.954Z,0
2017-01-01T03:40:44.449Z,0
2017-01-01T03:41:24.919Z,0
2017-01-01T03:42:05.444Z,0
2017-01-01T03:42:45.939Z,0
2017-01-01T03:43:26.456Z,0
2017-01-01T03:44:06.952Z,0
2017-01-01T03:44:47.449Z,0
2017-01-01T03:45:27.936Z,0
2017-01-01T03:46:08.440Z,0
2017-01-01T03:46:48.933Z,0
2017-01-01T03:47:29.440Z,0
2017-01-01T03:48:09.940Z,0
2017-01-01T03:48:50.437Z,0
2017-01-01T03:49:30.929Z,0
2017-01-01T03:50:11.414Z,0
2017-01-01T03:50:51.898Z,0
2017-01-01T03:51:32.405Z,0
2017-01-01T03:52:12.890Z,0
2017-01-01T03:52:53.373Z,0
2017-01-01T03:53:33.861Z,0
2017-01-01T03:54:14.357Z,0
2017-01-01T03:54:54.850Z,0
2017-01-01T03:55:35.339Z,0
2017-01-01T03:56:15.831Z,0
2017-01-01T03:56:56.339Z,0
2017-01-01T03:57:36.830Z,0
2017-01-01T03:58:17.325Z,0
2017-01-01T03:58:57.817Z,0
2017-01-01T03:59:38.307Z,0
2017-01-01T04:00:18.799Z,0
2017-01-01T04:00:59.299Z,0
2017-01-01T04:01:39.790Z,0
2017-01-01T04:02:20.296Z,0
2017-01-01T04:03:00.795Z,0
2017-01-01T04:03:41.296Z,0
2017-01-01T04:04:21.781Z,0
2017-01-01T04:05:02.274Z,0
2017-01-01T04:05:42.783Z,0
2017-01-01T04:06:23.276Z,0
2017-01-01T04:07:03.769Z,0
2017-01-01T04:07:44.258Z,0
2017-01-01T04:08:24.747Z,0
2017-01-01T04:09:05.231Z,0
2017-01-01T04:09:46.662Z,0
2017-01-01T04:10:27.147Z,0
2017-01-01T04:11:07.641Z,0
2017-01-01T04:11:48.134Z,0
2017-01-01T04:12:28.620Z,0
2017-01-01T04:13:09.116Z,0
2017-01-01T04:13:49.621Z,0
2017-01-01T04:14:30.231Z,0
2017-01-01T04:15:10.709Z,0
2017-01-01T04:17:08.392Z,0
2017-01-01T04:17:48.894Z,0
2017-01-01T04:18:29.378Z,0
2017-01-01T04:19:09.894Z,0
2017-01-01T04:19:50.378Z,0
2017-01-01T04:20:30.867Z,0
2017-01-01T04:21:11.348Z,0
2017-01-01T04:21:51.841Z,0
2017-01-01T04:22:32.334Z,0
2017-01-01T04:23:12.822Z,0
2017-01-01T04:23:53.314Z,0
2017-01-01T04:24:33.795Z,0
2017-01-01T04:25:14.288Z,0
2017-01-01T04:25:54.781Z,0
2017-01-01T04:26:35.436Z,0
2017-01-01T04:27:15.951Z,0
2017-01-01T04:27:56.436Z,0
2017-01-01T04:28:36.922Z,0
2017-01-01T04:29:17.407Z,0
2017-01-01T04:29:57.879Z,0
2017-01-01T04:30:38.367Z,0
2017-01-01T04:31:18.855Z,0
2017-01-01T04:31:59.340Z,0
2017-01-01T04:32:39.832Z,0
2017-01-01T04:33:20.327Z,0
2017-01-01T04:34:00.816Z,0
2017-01-01T04:34:41.307Z,0
2017-01-01T04:35:21.820Z,0
2017-01-01T04:36:02.323Z,0
2017-01-01T04:36:42.818Z,0
2017-01-01T04:37:23.325Z,0
2017-01-01T04:38:03.814Z,0
2017-01-01T04:38:44.345Z,0
2017-01-01T04:39:24.839Z,0
2017-01-01T04:40:05.328Z,0
2017-01-01T04:40:45.818Z,0
2017-01-01T04:41:26.316Z,0
2017-01-01T04:42:06.808Z,0
2017-01-01T04:42:47.353Z,0
2017-01-01T04:43:27.851Z,0
2017-01-01T04:44:08.357Z,0
2017-01-01T04:44:48.844Z,0
2017-01-01T04:45:29.326Z,0
2017-01-01T04:46:09.831Z,0
2017-01-01T04:46:50.320Z,0
2017-01-01T04:47:30.807Z,0
2017-01-01T04:48:11.297Z,0
2017-01-01T04:48:51.814Z,0
2017-01-01T04:49:32.312Z,0
2017-01-01T04:50:12.804Z,0
2017-01-01T04:50:53.286Z,0
2017-01-01T04:51:33.787Z,0
2017-01-01T04:52:14.276Z,0
2017-01-01T04:52:54.765Z,0
2017-01-01T04:53:35.256Z,0
2017-01-01T04:54:15.762Z,0
2017-01-01T04:54:56.253Z,0
2017-01-01T04:55:36.759Z,0
2017-01-01T04:56:17.243Z,0
2017-01-01T04:56:57.731Z,0
2017-01-01T04:57:38.457Z,0
2017-01-01T04:58:18.957Z,0
2017-01-01T04:58:59.445Z,0
2017-01-01T04:59:39.940Z,0
2017-01-01T05:00:20.450Z,0
2017-01-01T05:01:00.959Z,0
2017-01-01T05:01:41.442Z,0
2017-01-01T05:02:21.938Z,0
2017-01-01T05:03:02.431Z,0
2017-01-01T05:03:42.916Z,0
2017-01-01T05:04:23.408Z,0
2017-01-01T05:05:03.894Z,0
2017-01-01T05:05:44.381Z,0
2017-01-01T05:06:24.878Z,0
2017-01-01T05:07:05.365Z,0
2017-01-01T05:07:45.850Z,0
2017-01-01T05:08:26.352Z,0
2017-01-01T05:09:06.830Z,0
2017-01-01T05:09:47.325Z,0
2017-01-01T05:10:27.809Z,0
2017-01-01T05:11:08.404Z,0
2017-01-01T05:11:48.889Z,0
2017-01-01T05:12:29.369Z,0
2017-01-01T05:13:09.854Z,0
2017-01-01T05:13:50.343Z,0
2017-01-01T05:14:30.840Z,0
2017-01-01T05:15:11.329Z,0
2017-01-01T05:15:51.818Z,0
2017-01-01T05:16:32.303Z,0
2017-01-01T05:17:12.792Z,0
2017-01-01T05:17:53.287Z,0
2017-01-01T05:18:33.769Z,0
2017-01-01T05:19:14.254Z,0
2017-01-01T05:19:54.739Z,0
2017-01-01T05:20:35.224Z,0
2017-01-01T05:21:15.718Z,0
2017-01-01T05:21:56.211Z,0
2017-01-01T05:22:36.741Z,0
2017-01-01T05:23:17.225Z,0
2017-01-01T05:23:57.708Z,0
2017-01-01T05:24:38.190Z,0
2017-01-01T05:25:18.678Z,0
2017-01-01T05:25:59.185Z,0
2017-01-01T05:26:39.667Z,0
2017-01-01T05:27:20.181Z,0
2017-01-01T05:28:00.657Z,0
2017-01-01T05:28:41.147Z,0
2017-01-01T05:29:21.633Z,0
2017-01-01T05:30:02.123Z,0
2017-01-01T05:30:42.626Z,0
2017-01-01T05:31:23.121Z,0
2017-01-01T05:32:03.626Z,0
2017-01-01T05:32:44.112Z,0
2017-01-01T05:33:24.595Z,0
2017-01-01T05:34:05.082Z,0
2017-01-01T05:34:45.573Z,0
2017-01-01T05:35:26.068Z,0
2017-01-01T05:36:06.557Z,0
2017-01-01T05:36:47.043Z,0
2017-01-01T05:37:27.527Z,0
2017-01-01T05:38:08.020Z,0
2017-01-01T05:38:48.514Z,0
2017-01-01T05:39:29.007Z,0
2017-01-01T05:40:09.515Z,0
2017-01-01T05:40:50.000Z,0
2017-01-01T05:41:30.490Z,0
2017-01-01T05:42:10.977Z,0
2017-01-01T05:42:51.484Z,0
2017-01-01T05:43:31.969Z,0
2017-01-01T05:44:12.463Z,0
2017-01-01T05:44:52.958Z,0
2017-01-01T05:45:33.450Z,0
2017-01-01T05:46:13.934Z,0
2017-01-01T05:46:54.425Z,0
2017-01-01T05:47:34.929Z,0
2017-01-01T05:48:15.415Z,0
2017-01-01T05:48:55.922Z,0
2017-01-01T05:49:36.411Z,0
2017-01-01T05:50:16.907Z,0
2017-01-01T05:50:57.406Z,0
2017-01-01T05:51:37.894Z,0
2017-01-01T05:52:18.381Z,0
2017-01-01T05:52:59.121Z,0
2017-01-01T05:53:39.609Z,0
2017-01-01T05:54:20.094Z,0
2017-01-01T05:55:00.590Z,0
2017-01-01T05:55:41.098Z,0
2017-01-01T05:56:21.583Z,0
2017-01-01T05:57:02.073Z,0
2017-01-01T05:57:42.571Z,0
2017-01-01T05:58:23.057Z,0
2017-01-01T05:59:03.570Z,0
2017-01-01T05:59:44.058Z,0
2017-01-01T06:00:24.539Z,0
2017-01-01T06:01:05.048Z,0
2017-01-01T06:01:45.550Z,0
2017-01-01T06:02:26.044Z,0
2017-01-01T06:03:06.543Z,0
2017-01-01T06:03:47.049Z,0
2017-01-01T06:04:27.543Z,0
2017-01-01T06:05:08.048Z,0
2017-01-01T06:05:48.534Z,0
2017-01-01T06:06:29.022Z,0
2017-01-01T06:07:09.505Z,0
2017-01-01T06:07:50.012Z,0
2017-01-01T06:08:30.503Z,0
2017-01-01T06:09:10.983Z,0
2017-01-01T06:09:51.466Z,0
2017-01-01T06:10:31.950Z,0
2017-01-01T06:11:12.442Z,0
2017-01-01T06:11:52.942Z,0
2017-01-01T06:12:33.435Z,0
2017-01-01T06:13:13.939Z,0
2017-01-01T06:13:54.427Z,0
2017-01-01T06:14:34.910Z,0
2017-01-01T06:15:15.401Z,0
2017-01-01T06:15:55.901Z,0
2017-01-01T06:16:36.387Z,0
2017-01-01T06:17:16.934Z,0
2017-01-01T06:17:57.424Z,0
2017-01-01T06:18:37.943Z,0
2017-01-01T06:19:18.392Z,0
2017-01-01T06:19:58.903Z,0
2017-01-01T06:20:39.384Z,0
2017-01-01T06:21:19.867Z,0
2017-01-01T06:22:00.376Z,0
2017-01-01T06:22:40.862Z,0
2017-01-01T06:23:21.665Z,0
2017-01-01T06:24:02.099Z,0
2017-01-01T06:24:42.586Z,0
2017-01-01T06:25:23.067Z,0
2017-01-01T06:26:03.583Z,0
2017-01-01T06:26:44.067Z,0
2017-01-01T06:27:24.556Z,0
2017-01-01T06:28:05.044Z,0
2017-01-01T06:28:45.533Z,0
2017-01-01T06:29:26.027Z,0
2017-01-01T06:30:06.519Z,0
2017-01-01T06:30:47.002Z,0
2017-01-01T06:31:27.489Z,0
2017-01-01T06:32:07.978Z,0
2017-01-01T06:32:48.474Z,0
2017-01-01T06:33:28.962Z,0
2017-01-01T06:34:09.447Z,0
2017-01-01T06:34:49.930Z,0
2017-01-01T06:35:30.432Z,0
2017-01-01T06:36:10.924Z,0
2017-01-01T06:36:51.410Z,0
2017-01-01T06:37:31.891Z,0
2017-01-01T06:38:12.375Z,0
2017-01-01T06:38:52.888Z,0
2017-01-01T06:39:33.370Z,0
2017-01-01T06:40:13.863Z,0
2017-01-01T06:40:54.360Z,0
2017-01-01T06:41:34.856Z,0
2017-01-01T06:42:15.334Z,0
2017-01-01T06:42:55.818Z,0
2017-01-01T06:43:36.315Z,0
2017-01-01T06:44:16.792Z,0
2017-01-01T06:44:57.299Z,0
2017-01-01T06:45:37.788Z,0
2017-01-01T06:46:18.282Z,0
2017-01-01T06:46:58.773Z,0
2017-01-01T06:47:39.258Z,0
2017-01-01T06:48:19.743Z,0
2017-01-01T06:49:00.261Z,0
2017-01-01T06:49:40.753Z,0
2017-01-01T06:50:21.255Z,0
2017-01-01T06:51:01.741Z,0
2017-01-01T06:51:42.217Z,0
2017-01-01T06:52:22.702Z,0
2017-01-01T06:53:03.195Z,0
2017-01-01T06:53:43.700Z,0
2017-01-01T06:54:24.188Z,0
2017-01-01T06:55:04.676Z,0
2017-01-01T06:55:45.171Z,0
2017-01-01T06:56:25.661Z,0
2017-01-01T06:57:06.148Z,0
2017-01-01T06:57:46.644Z,0
2017-01-01T06:58:27.143Z,0
2017-01-01T06:59:07.615Z,0
2017-01-01T07:01:05.331Z,0
2017-01-01T07:01:45.823Z,0
2017-01-01T07:02:26.312Z,0
2017-01-01T07:03:06.804Z,0
2017-01-01T07:03:47.287Z,0
2017-01-01T07:04:27.777Z,0
2017-01-01T07:05:08.272Z,0
2017-01-01T07:05:48.758Z,0
2017-01-01T07:06:29.247Z,0
2017-01-01T07:07:09.743Z,0
2017-01-01T07:07:50.245Z,0
2017-01-01T07:08:30.729Z,0
2017-01-01T07:09:11.225Z,0
2017-01-01T07:09:51.729Z,0
2017-01-01T07:10:32.215Z,0
2017-01-01T07:11:12.702Z,0
2017-01-01T07:11:53.211Z,0
2017-01-01T07:12:33.696Z,0
2017-01-01T07:13:14.192Z,4
2017-01-01T07:13:54.682Z,4
2017-01-01T07:14:35.185Z,0
2017-01-01T07:15:15.685Z,4
2017-01-01T07:15:56.184Z,4
2017-01-01T07:16:36.681Z,4
2017-01-01T07:17:17.177Z,4
2017-01-01T07:17:57.662Z,4
2017-01-01T07:18:38.153Z,0
2017-01-01T07:19:18.647Z,4
2017-01-01T07:19:59.212Z,4
2017-01-01T07:20:39.698Z,4
2017-01-01T07:21:20.196Z,8
2017-01-01T07:22:00.684Z,8
2017-01-01T07:22:41.173Z,8
2017-01-01T07:23:21.657Z,12
2017-01-01T07:24:02.142Z,12
2017-01-01T07:24:42.645Z,12
2017-01-01T07:25:23.136Z,8
2017-01-01T07:26:03.645Z,12
2017-01-01T07:26:44.131Z,12
2017-01-01T07:27:24.626Z,12
2017-01-01T07:28:05.128Z,12
2017-01-01T07:28:45.609Z,12
2017-01-01T07:29:26.097Z,16
2017-01-01T07:30:06.579Z,20
2017-01-01T07:30:47.071Z,20
2017-01-01T07:31:27.571Z,20
2017-01-01T07:32:08.061Z,16
2017-01-01T07:32:48.542Z,20
2017-01-01T07:33:29.027Z,20
2017-01-01T07:34:09.514Z,24
2017-01-01T07:34:50.013Z,24
2017-01-01T07:35:30.505Z,24
2017-01-01T07:36:10.995Z,24
2017-01-01T07:36:51.482Z,24
2017-01-01T07:37:31.979Z,28
2017-01-01T07:38:12.468Z,32
2017-01-01T07:38:52.961Z,40
2017-01-01T07:39:33.456Z,36
2017-01-01T07:40:13.967Z,28
2017-01-01T07:40:54.437Z,28
2017-01-01T07:41:34.937Z,36
2017-01-01T07:42:15.425Z,48
2017-01-01T07:42:55.912Z,48
2017-01-01T07:43:36.402Z,40
2017-01-01T07:44:16.904Z,28
2017-01-01T07:44:57.400Z,24
2017-01-01T07:45:37.909Z,32
2017-01-01T07:46:18.394Z,48
2017-01-01T07:46:58.906Z,60
2017-01-01T07:47:39.393Z,60
2017-01-01T07:48:19.905Z,52
2017-01-01T07:49:00.391Z,48
2017-01-01T07:49:40.884Z,40
2017-01-01T07:50:21.396Z,44
2017-01-01T07:51:01.903Z,44
2017-01-01T07:51:42.384Z,56
2017-01-01T07:52:22.877Z,60
2017-01-01T07:53:03.368Z,68
2017-01-01T07:53:43.862Z,56
2017-01-01T07:54:24.384Z,68
2017-01-01T07:55:05.106Z,72
2017-01-01T07:55:45.601Z,64
2017-01-01T07:56:26.094Z,60
2017-01-01T07:57:06.588Z,60
2017-01-01T07:57:47.075Z,60
2017-01-01T07:58:27.557Z,56
2017-01-01T07:59:08.050Z,72
2017-01-01T07:59:48.542Z,68
2017-01-01T08:00:29.046Z,68
2017-01-01T08:01:09.539Z,68
2017-01-01T08:01:50.046Z,68
2017-01-01T08:02:30.544Z,76
2017-01-01T08:03:11.028Z,68
2017-01-01T08:03:51.514Z,64
2017-01-01T08:04:32.005Z,76
2017-01-01T08:05:12.496Z,80
2017-01-01T08:05:52.994Z,80
2017-01-01T08:06:33.479Z,64
2017-01-01T08:07:13.990Z,88
2017-01-01T08:07:54.476Z,92
2017-01-01T08:08:34.964Z,84
2017-01-01T08:09:15.456Z,72
2017-01-01T08:09:55.949Z,80
2017-01-01T08:10:36.435Z,88
2017-01-01T08:11:16.926Z,96
2017-01-01T08:11:57.414Z,96
2017-01-01T08:12:37.933Z,92
2017-01-01T08:13:18.426Z,100
2017-01-01T08:13:58.922Z,124
2017-01-01T08:14:39.402Z,136
2017-01-01T08:15:19.889Z,148
2017-01-01T08:16:00.375Z,160
2017-01-01T08:16:40.878Z,176
2017-01-01T08:17:21.366Z,196
2017-01-01T08:18:01.867Z,204
2017-01-01T08:18:42.367Z,204
2017-01-01T08:19:22.881Z,200
2017-01-01T08:20:03.387Z,204
2017-01-01T08:20:43.874Z,220
2017-01-01T08:21:24.358Z,224
2017-01-01T08:22:04.852Z,228
2017-01-01T08:22:45.361Z,228
2017-01-01T08:23:25.870Z,224
2017-01-01T08:24:06.363Z,232
2017-01-01T08:24:46.869Z,244
2017-01-01T08:25:27.489Z,248
2017-01-01T08:26:07.975Z,244
2017-01-01T08:26:48.473Z,240
2017-01-01T08:27:28.958Z,232
2017-01-01T08:28:09.463Z,248
2017-01-01T08:28:49.960Z,256
2017-01-01T08:29:30.453Z,252
2017-01-01T08:30:10.960Z,256
2017-01-01T08:30:51.452Z,260
2017-01-01T08:31:31.959Z,256
2017-01-01T08:32:12.443Z,304
2017-01-01T08:32:52.954Z,320
2017-01-01T08:33:33.439Z,316
2017-01-01T08:34:13.931Z,316
2017-01-01T08:34:54.421Z,276
2017-01-01T08:35:34.916Z,324
2017-01-01T08:36:15.404Z,332
2017-01-01T08:36:55.883Z,356
2017-01-01T08:37:36.377Z,360
2017-01-01T08:38:16.867Z,368
2017-01-01T08:38:57.364Z,368
2017-01-01T08:39:37.851Z,372
2017-01-01T08:40:18.343Z,364
2017-01-01T08:40:58.841Z,368
2017-01-01T08:41:39.335Z,396
2017-01-01T08:42:19.822Z,400
2017-01-01T08:43:00.315Z,388
2017-01-01T08:43:40.806Z,412
2017-01-01T08:44:21.296Z,400
2017-01-01T08:45:01.816Z,400
2017-01-01T08:45:42.303Z,376
2017-01-01T08:46:22.802Z,304
2017-01-01T08:47:03.307Z,264
2017-01-01T08:47:43.773Z,316
2017-01-01T08:48:24.262Z,376
2017-01-01T08:49:04.749Z,408
2017-01-01T08:49:45.246Z,412
2017-01-01T08:50:25.734Z,412
2017-01-01T08:51:06.227Z,404
2017-01-01T08:51:46.726Z,400
2017-01-01T08:52:27.224Z,384
2017-01-01T08:53:07.725Z,404
2017-01-01T08:53:48.214Z,400
2017-01-01T08:54:28.707Z,412
2017-01-01T08:55:09.301Z,416
2017-01-01T08:55:49.830Z,412
2017-01-01T08:56:30.321Z,412
2017-01-01T08:57:10.831Z,408
2017-01-01T08:57:51.317Z,400
2017-01-01T08:58:31.804Z,392
2017-01-01T08:59:12.303Z,388
2017-01-01T08:59:52.830Z,384
2017-01-01T09:00:33.327Z,380
2017-01-01T09:01:13.826Z,380
2017-01-01T09:01:54.311Z,380
2017-01-01T09:02:34.807Z,384
2017-01-01T09:03:15.310Z,392
2017-01-01T09:03:55.808Z,392
2017-01-01T09:04:36.306Z,388
2017-01-01T09:05:16.817Z,396
2017-01-01T09:05:57.298Z,404
2017-01-01T09:06:37.785Z,424
2017-01-01T09:07:18.275Z,444
2017-01-01T09:07:58.768Z,452
2017-01-01T09:08:39.261Z,452
2017-01-01T09:09:19.751Z,452
2017-01-01T09:10:00.243Z,432
2017-01-01T09:10:40.725Z,436
2017-01-01T09:11:21.231Z,484
2017-01-01T09:12:01.719Z,504
2017-01-01T09:12:42.207Z,512
2017-01-01T09:13:22.710Z,520
2017-01-01T09:14:03.203Z,500
2017-01-01T09:14:43.715Z,512
2017-01-01T09:15:24.200Z,520
2017-01-01T09:16:04.682Z,528
2017-01-01T09:16:45.180Z,532
2017-01-01T09:17:25.668Z,524
2017-01-01T09:18:06.155Z,516
2017-01-01T09:18:46.641Z,508
2017-01-01T09:19:27.151Z,568
2017-01-01T09:20:07.643Z,588
2017-01-01T09:20:48.148Z,584
2017-01-01T09:21:28.639Z,560
2017-01-01T09:22:09.143Z,536
2017-01-01T09:22:49.643Z,552
2017-01-01T09:23:30.151Z,564
2017-01-01T09:24:10.643Z,576
2017-01-01T09:24:51.148Z,600
2017-01-01T09:25:31.636Z,628
2017-01-01T09:26:12.382Z,636
2017-01-01T09:26:52.863Z,588
2017-01-01T09:27:33.356Z,548
2017-01-01T09:28:13.848Z,576
2017-01-01T09:28:54.344Z,596
2017-01-01T09:29:34.835Z,660
2017-01-01T09:30:15.322Z,736
2017-01-01T09:30:55.802Z,756
2017-01-01T09:31:36.293Z,744
2017-01-01T09:32:16.791Z,676
2017-01-01T09:32:57.290Z,584
2017-01-01T09:33:37.791Z,660
2017-01-01T09:34:18.286Z,720
2017-01-01T09:34:58.798Z,668
2017-01-01T09:35:39.276Z,628
2017-01-01T09:36:19.787Z,704
2017-01-01T09:37:00.276Z,724
2017-01-01T09:37:40.762Z,736
2017-01-01T09:38:21.243Z,736
2017-01-01T09:39:01.752Z,724
2017-01-01T09:39:42.234Z,640
2017-01-01T09:40:22.728Z,524
2017-01-01T09:41:03.232Z,636
2017-01-01T09:41:43.720Z,664
2017-01-01T09:42:24.225Z,704
2017-01-01T09:43:04.721Z,724
2017-01-01T09:43:45.210Z,616
2017-01-01T09:44:25.723Z,648
2017-01-01T09:45:06.226Z,736
2017-01-01T09:45:46.712Z,736
2017-01-01T09:46:27.205Z,636
2017-01-01T09:47:07.703Z,660
2017-01-01T09:47:48.195Z,688
2017-01-01T09:48:28.679Z,564
2017-01-01T09:49:09.176Z,688
2017-01-01T09:49:49.676Z,720
2017-01-01T09:50:30.167Z,680
2017-01-01T09:51:10.677Z,624
2017-01-01T09:51:51.160Z,556
2017-01-01T09:52:31.646Z,644
2017-01-01T09:53:12.143Z,644
2017-01-01T09:53:52.637Z,644